KRSWKEYW

Guest
Details From KRSW - Southwest Florida Intl
To KEYW - Key West Intl
Flight Number -
Tags generated
Created
Modified
Stats Distance 119 nm / 220 km
Max Altitude 8,200 ft / 2,499 m
Waypoints 3
Social Downloads 2
Likes 0
Share VATSIM

Download

Looking for another format? Having issues loading an existing format? Contact us
Advertisement - Login to hide

Notes

Basic altitude profile: - Ascent Rate: 2500ft/min - Ascent Speed: 250kts - Cruise Altitude: 35000ft - Cruise Speed: 420kts - Descent Rate: 1500ft/min - Descent Speed: 250kts Options: - Use NATs: yes - Use PACOTS: yes - Use low airways: yes - Use high airways: yes

Route

KRSW CYY KEYW

ID Type Via Altitude Latitude Longitude Leg Dist Tot Dist Heading (true) Name
O KRSW APT - 0 ft / 0 m 26.53616˚ -81.75515˚ - 0 nm - Southwest Florida Intl
CYY VOR - 8,200 ft / 2,499 m 26.15342˚ -81.77811˚ 23 nm 23 nm 183° / 183° CYPRESS VOR-DME
O KEYW APT - 0 ft / 0 m 24.55612˚ -81.75955˚ 95 nm 118 nm 179° / 179° Key West Intl

Altitude Profile

Advertisement - Login to hide

KRSW

Details ICAO KRSW (RSW)
Name Southwest Florida Intl
Region United States
Timezone America/New_York (UTC-5.0)
Stats Elevation 30 ft / 9 m (AMSL)
Location 26.536162° -81.755152°
Runways 1
Magnetic Variation 5.841° W

METAR

KRSW 171053Z 06005KT 10SM CLR 14/14 A3021 RMK AO2 SLP227 T01440144

Decode

TAF

KRSW 171149Z 1712/1812 06004KT P6SM BKN250 FM171500 11008KT P6SM SCT025 SCT250 FM172300 VRB03KT P6SM SCT040 SCT250 FM180600 VRB03KT 6SM BR SCT010 SCT250 FM180900 VRB03KT 3SM BR BKN010

Decode

Departure Runways

ID Width Length Bearing (true) Bearing (mag) Surface Threshold Offset Overrun Length
06 150 ft / 46 m 12,004 ft / 3,659 m 53.96° 59.80° Asphalt 0 ft / 0 m 0 ft / 0 m
24 150 ft / 46 m 12,004 ft / 3,659 m 233.97° 239.81° Asphalt 0 ft / 0 m 0 ft / 0 m

KEYW

Details ICAO KEYW (EYW)
Name Key West Intl
Region United States
Timezone America/New_York (UTC-5.0)
Stats Elevation 2 ft / 1 m (AMSL)
Location 24.556124° -81.759546°
Runways 1
Magnetic Variation 5.546° W

METAR

KEYW 171053Z AUTO 04006KT 10SM BKN039 21/19 A3018 RMK AO2 SLP218 T02110189 $

Decode

TAF

KEYW 171139Z 1712/1812 06005G15KT P6SM SCT035 FM171500 09010G19KT P6SM FEW020 SCT040 TEMPO 1715/1719 BKN025 FM172300 08007KT P6SM SCT040

Decode

Destination Runways

ID Width Length Bearing (true) Bearing (mag) Surface Threshold Offset Overrun Length
09 100 ft / 30 m 4,794 ft / 1,461 m 89.38° 94.93° Asphalt 151 ft / 46 m 0 ft / 0 m
27 100 ft / 30 m 4,794 ft / 1,461 m 269.39° 274.94° Asphalt 151 ft / 46 m 0 ft / 0 m

Popular Alternatives